createdAt,value
2023-05-22T00:01:45.507Z,18.15
2023-05-22T00:04:13.214Z,18.47
2023-05-22T00:06:43.857Z,18.38
2023-05-22T00:09:10.999Z,18.44
2023-05-22T00:11:37.678Z,18.46
2023-05-22T00:14:04.339Z,18.40
2023-05-22T00:16:31.337Z,18.20
2023-05-22T00:18:58.106Z,18.25
2023-05-22T00:21:24.917Z,18.44
2023-05-22T00:23:51.638Z,18.64
2023-05-22T00:26:18.239Z,18.42
2023-05-22T00:28:44.888Z,18.52
2023-05-22T00:31:11.564Z,18.11
2023-05-22T00:33:38.351Z,18.48
2023-05-22T00:36:05.601Z,18.37
2023-05-22T00:38:34.754Z,17.96
2023-05-22T00:41:02.624Z,18.09
2023-05-22T00:43:29.284Z,18.33
2023-05-22T00:45:56.385Z,17.99
2023-05-22T00:48:24.151Z,18.26
2023-05-22T00:50:53.772Z,18.35
2023-05-22T00:53:21.992Z,17.89
2023-05-22T00:55:48.777Z,18.21
2023-05-22T00:58:18.024Z,18.08
2023-05-22T01:00:46.581Z,18.25
2023-05-22T01:03:14.853Z,18.11
2023-05-22T01:05:42.184Z,18.15
2023-05-22T01:08:09.154Z,17.97
2023-05-22T01:10:37.629Z,18.10
2023-05-22T01:13:50.990Z,18.07
2023-05-22T01:16:39.758Z,17.92
2023-05-22T01:19:47.451Z,18.03
2023-05-22T01:22:43.253Z,18.00
2023-05-22T01:25:12.787Z,17.94
2023-05-22T01:27:58.153Z,17.88
2023-05-22T01:30:48.391Z,17.87
2023-05-22T01:33:17.177Z,17.74
2023-05-22T01:35:51.728Z,17.56
2023-05-22T01:38:19.989Z,17.62
2023-05-22T01:40:46.742Z,17.51
2023-05-22T01:43:15.762Z,17.53
2023-05-22T01:45:42.561Z,17.41
2023-05-22T01:48:09.525Z,16.82
2023-05-22T01:50:36.455Z,17.52
2023-05-22T01:53:13.494Z,17.48
2023-05-22T01:55:55.818Z,17.28
2023-05-22T01:58:37.714Z,17.39
2023-05-22T02:01:10.060Z,17.37
2023-05-22T02:03:39.411Z,17.16
2023-05-22T02:06:08.815Z,17.07
2023-05-22T02:08:39.487Z,16.71
2023-05-22T02:11:07.936Z,17.01
2023-05-22T02:13:36.025Z,17.05
2023-05-22T02:16:04.079Z,16.63
2023-05-22T02:18:31.485Z,17.04
2023-05-22T02:20:59.123Z,16.46
2023-05-22T02:23:29.476Z,16.56
2023-05-22T02:25:56.455Z,16.75
2023-05-22T02:28:23.190Z,16.75
2023-05-22T02:30:50.077Z,16.60
2023-05-22T02:33:18.537Z,16.72
2023-05-22T02:35:45.926Z,16.33
2023-05-22T02:38:13.673Z,16.19
2023-05-22T02:40:40.878Z,16.09
2023-05-22T02:43:07.970Z,16.52
2023-05-22T02:45:34.781Z,16.50
2023-05-22T02:48:03.552Z,16.36
2023-05-22T02:50:32.313Z,16.41
2023-05-22T02:52:59.107Z,16.36
2023-05-22T02:55:25.856Z,16.26
2023-05-22T02:57:52.646Z,16.15
2023-05-22T03:00:19.878Z,16.08
2023-05-22T03:02:46.802Z,15.70
2023-05-22T03:05:17.719Z,16.12
2023-05-22T03:07:48.142Z,16.16
2023-05-22T03:10:15.557Z,15.95
2023-05-22T03:12:42.327Z,16.02
2023-05-22T03:15:10.292Z,15.88
2023-05-22T03:17:41.761Z,16.00
2023-05-22T03:20:10.311Z,15.82
2023-05-22T03:22:36.983Z,15.78
2023-05-22T03:25:06.367Z,15.81
2023-05-22T03:27:33.007Z,15.75
2023-05-22T03:30:01.772Z,15.71
2023-05-22T03:32:29.445Z,15.62
2023-05-22T03:34:58.474Z,15.62
2023-05-22T03:37:25.268Z,15.60
2023-05-22T03:39:51.899Z,15.69
2023-05-22T03:42:26.213Z,15.51
2023-05-22T03:44:53.140Z,15.40
2023-05-22T03:47:19.924Z,15.66
2023-05-22T03:49:46.969Z,15.53
2023-05-22T03:52:13.691Z,15.67
2023-05-22T03:54:40.336Z,15.66
2023-05-22T03:57:07.327Z,15.73
2023-05-22T03:59:35.965Z,15.87
2023-05-22T04:02:02.628Z,15.82
2023-05-22T04:04:29.751Z,15.67
2023-05-22T04:06:58.191Z,15.73
2023-05-22T04:09:31.222Z,15.86
2023-05-22T04:11:58.550Z,15.35
2023-05-22T04:14:26.177Z,15.70
2023-05-22T04:16:53.139Z,15.67
2023-05-22T04:19:19.960Z,15.76
2023-05-22T04:21:48.177Z,15.86
2023-05-22T04:24:16.970Z,15.30
2023-05-22T04:26:44.733Z,15.75
2023-05-22T04:29:14.385Z,15.58
2023-05-22T04:31:42.104Z,15.34
2023-05-22T04:34:14.910Z,15.87
2023-05-22T04:36:44.982Z,15.98
2023-05-22T04:39:11.671Z,16.09
2023-05-22T04:41:39.032Z,16.07
2023-05-22T04:44:06.764Z,15.81
2023-05-22T04:46:36.286Z,16.33
2023-05-22T04:49:03.226Z,16.31
2023-05-22T04:51:31.161Z,16.15
2023-05-22T04:53:58.587Z,16.15
2023-05-22T04:56:35.408Z,16.22
2023-05-22T04:59:05.435Z,16.28
2023-05-22T05:01:35.033Z,16.31
2023-05-22T05:04:02.963Z,16.40
2023-05-22T05:06:30.836Z,16.40
2023-05-22T05:08:58.063Z,16.26
2023-05-22T05:11:24.795Z,16.42
2023-05-22T05:13:51.515Z,16.46
2023-05-22T05:16:19.048Z,16.16
2023-05-22T05:18:46.031Z,16.40
2023-05-22T05:21:12.852Z,16.60
2023-05-22T05:23:39.544Z,16.60
2023-05-22T05:26:07.220Z,16.68
2023-05-22T05:28:33.947Z,16.35
2023-05-22T05:31:01.705Z,16.00
2023-05-22T05:33:52.088Z,16.32
2023-05-22T05:36:41.552Z,16.44
2023-05-22T05:39:08.376Z,16.37
2023-05-22T05:41:35.486Z,16.30
2023-05-22T05:44:07.680Z,16.37
2023-05-22T05:46:35.732Z,16.34
2023-05-22T05:49:10.049Z,16.44
2023-05-22T05:51:38.573Z,16.64
2023-05-22T05:54:06.234Z,16.60
2023-05-22T05:56:33.025Z,16.64
2023-05-22T05:59:00.396Z,16.16
2023-05-22T06:01:39.833Z,16.72
2023-05-22T06:04:15.543Z,16.32
2023-05-22T06:06:44.960Z,16.74
2023-05-22T06:09:14.960Z,16.63
2023-05-22T06:12:13.908Z,16.11
2023-05-22T06:14:43.974Z,16.53
2023-05-22T06:17:11.104Z,16.86
2023-05-22T06:19:39.658Z,16.84
2023-05-22T06:22:06.821Z,17.17
2023-05-22T06:24:34.089Z,17.10
2023-05-22T06:27:06.589Z,17.22
2023-05-22T06:29:33.615Z,17.37
2023-05-22T06:32:00.603Z,17.39
2023-05-22T06:34:29.289Z,17.58
2023-05-22T06:36:58.086Z,17.17
2023-05-22T06:39:29.797Z,17.41
2023-05-22T06:42:33.127Z,17.50
2023-05-22T06:45:26.954Z,17.86
2023-05-22T06:48:19.827Z,18.01
2023-05-22T06:51:21.731Z,17.69
2023-05-22T06:53:51.814Z,18.14
2023-05-22T06:56:24.721Z,18.37
2023-05-22T06:59:01.390Z,17.95
2023-05-22T07:01:46.953Z,18.17
2023-05-22T07:04:18.250Z,18.55
2023-05-22T07:06:52.157Z,18.71
2023-05-22T07:09:19.862Z,18.80
2023-05-22T07:11:48.218Z,19.02
2023-05-22T07:14:16.085Z,18.97
2023-05-22T07:16:43.780Z,19.30
2023-05-22T07:19:11.931Z,19.87
2023-05-22T07:21:39.262Z,20.22
2023-05-22T07:24:10.116Z,20.29
2023-05-22T07:26:46.186Z,20.36
2023-05-22T07:29:16.513Z,20.09
2023-05-22T07:31:46.915Z,20.60
2023-05-22T07:34:13.602Z,21.13
2023-05-22T07:36:40.222Z,21.38
2023-05-22T07:39:09.501Z,21.48
2023-05-22T07:41:39.772Z,21.76
2023-05-22T07:44:08.837Z,21.98
2023-05-22T07:46:38.230Z,22.11
2023-05-22T07:49:19.459Z,21.97
2023-05-22T07:51:47.036Z,22.61
2023-05-22T07:54:15.358Z,22.79
2023-05-22T07:56:45.702Z,22.62
2023-05-22T07:59:13.160Z,22.20
2023-05-22T08:01:41.728Z,22.66
2023-05-22T08:04:08.747Z,22.96
2023-05-22T08:06:35.669Z,23.34
2023-05-22T08:09:04.452Z,23.84
2023-05-22T08:11:31.625Z,23.70
2023-05-22T08:13:58.251Z,24.19
2023-05-22T08:16:25.092Z,24.61
2023-05-22T08:18:51.858Z,24.60
2023-05-22T08:21:18.727Z,24.48
2023-05-22T08:23:45.503Z,24.70
2023-05-22T08:26:12.325Z,24.94
2023-05-22T08:28:43.893Z,24.88
2023-05-22T08:31:11.743Z,25.01
2023-05-22T08:33:38.514Z,24.89
2023-05-22T08:36:05.832Z,24.92
2023-05-22T08:38:32.613Z,24.55
2023-05-22T08:40:59.991Z,24.87
2023-05-22T08:43:28.479Z,25.00
2023-05-22T08:46:06.182Z,25.44
2023-05-22T08:48:33.422Z,25.25
2023-05-22T08:51:05.611Z,25.20
2023-05-22T08:53:34.415Z,25.52
2023-05-22T08:56:02.429Z,25.47
2023-05-22T08:58:29.489Z,25.70
2023-05-22T09:00:56.372Z,25.22
2023-05-22T09:03:23.452Z,24.46
2023-05-22T09:05:50.336Z,24.90
2023-05-22T09:08:20.959Z,24.89
2023-05-22T09:10:48.093Z,25.17
2023-05-22T09:13:28.274Z,25.59
2023-05-22T09:16:12.238Z,26.25
2023-05-22T09:18:40.484Z,25.72
2023-05-22T09:21:21.574Z,25.53
2023-05-22T09:23:54.596Z,26.17
2023-05-22T09:26:21.466Z,26.11
2023-05-22T09:28:48.029Z,26.10
2023-05-22T09:31:14.956Z,26.05
2023-05-22T09:33:44.189Z,26.01
2023-05-22T09:36:11.123Z,26.30
2023-05-22T09:38:38.273Z,27.09
2023-05-22T09:41:05.781Z,26.99
2023-05-22T09:43:33.652Z,26.81
2023-05-22T09:46:06.241Z,27.16
2023-05-22T09:48:38.950Z,27.62
2023-05-22T09:51:07.262Z,27.14
2023-05-22T09:53:35.051Z,27.50
2023-05-22T09:56:05.954Z,28.02
2023-05-22T09:58:35.612Z,28.24
2023-05-22T10:01:03.181Z,27.97
2023-05-22T10:03:31.813Z,28.03
2023-05-22T10:05:58.864Z,28.11
2023-05-22T10:08:34.406Z,28.48
2023-05-22T10:11:01.443Z,28.02
2023-05-22T10:13:29.032Z,28.31
2023-05-22T10:15:57.118Z,29.08
2023-05-22T10:18:24.663Z,29.40
2023-05-22T10:20:51.909Z,29.10
2023-05-22T10:23:18.829Z,29.03
2023-05-22T10:25:46.224Z,28.85
2023-05-22T10:28:19.329Z,28.88
2023-05-22T10:31:09.838Z,29.23
2023-05-22T10:34:00.710Z,29.39
2023-05-22T10:37:00.412Z,29.67
2023-05-22T10:40:11.849Z,30.43
2023-05-22T10:42:38.784Z,30.42
2023-05-22T10:45:09.449Z,29.72
2023-05-22T10:47:36.801Z,30.18
2023-05-22T10:50:12.781Z,30.14
2023-05-22T10:52:40.279Z,30.40
2023-05-22T10:55:10.873Z,30.55
2023-05-22T10:57:38.730Z,31.10
2023-05-22T11:00:09.495Z,30.96
2023-05-22T11:02:45.041Z,31.07
2023-05-22T11:05:21.564Z,31.32
2023-05-22T11:07:49.114Z,31.68
2023-05-22T11:10:26.076Z,31.39
2023-05-22T11:13:29.309Z,31.64
2023-05-22T11:15:57.673Z,31.98
2023-05-22T11:18:28.310Z,31.90
2023-05-22T11:20:55.833Z,31.94
2023-05-22T11:23:25.594Z,32.39
2023-05-22T11:25:52.246Z,32.03
2023-05-22T11:28:19.048Z,31.71
2023-05-22T11:30:45.916Z,32.31
2023-05-22T11:33:13.063Z,32.39
2023-05-22T11:35:39.919Z,32.53
2023-05-22T11:38:07.151Z,32.51
2023-05-22T11:40:33.974Z,32.57
2023-05-22T11:43:00.549Z,32.77
2023-05-22T11:45:27.282Z,33.05
2023-05-22T11:47:54.185Z,33.85
2023-05-22T11:50:40.255Z,33.64
2023-05-22T11:53:08.241Z,33.07
2023-05-22T11:55:35.003Z,32.28
2023-05-22T11:58:02.714Z,32.02
2023-05-22T12:00:31.269Z,32.13
2023-05-22T12:02:58.411Z,32.77
2023-05-22T12:05:25.140Z,33.01
2023-05-22T12:07:51.863Z,33.36
2023-05-22T12:10:18.722Z,33.95
2023-05-22T12:12:45.364Z,34.14
2023-05-22T12:15:12.287Z,33.86
2023-05-22T12:17:40.063Z,34.14
2023-05-22T12:20:07.238Z,33.51
2023-05-22T12:22:33.844Z,34.44
2023-05-22T12:25:00.479Z,34.70
2023-05-22T12:27:33.190Z,34.88
2023-05-22T12:30:09.258Z,34.14
2023-05-22T12:32:36.605Z,34.22
2023-05-22T12:35:03.283Z,34.15
2023-05-22T12:37:31.985Z,34.10
2023-05-22T12:40:00.658Z,35.02
2023-05-22T12:42:28.371Z,35.08
2023-05-22T12:44:57.996Z,35.03
2023-05-22T12:47:25.213Z,35.34
2023-05-22T12:49:52.182Z,35.92
2023-05-22T12:52:18.967Z,35.98
2023-05-22T12:54:46.080Z,36.35
2023-05-22T12:57:12.692Z,36.33
2023-05-22T12:59:39.284Z,36.42
2023-05-22T13:02:06.210Z,36.31
2023-05-22T13:04:33.076Z,35.79
2023-05-22T13:06:59.854Z,35.51
2023-05-22T13:09:26.585Z,34.76
2023-05-22T13:11:53.288Z,35.31
2023-05-22T13:14:19.873Z,35.31
2023-05-22T13:16:46.544Z,35.59
2023-05-22T13:19:13.290Z,35.52
2023-05-22T13:21:39.998Z,35.74
2023-05-22T13:24:06.653Z,35.75
2023-05-22T13:26:33.190Z,36.03
2023-05-22T13:28:59.806Z,35.94
2023-05-22T13:31:26.443Z,35.82
2023-05-22T13:33:53.092Z,35.80
2023-05-22T13:36:19.903Z,35.29
2023-05-22T13:38:46.594Z,35.13
2023-05-22T13:41:15.370Z,35.24
2023-05-22T13:43:42.087Z,35.51
2023-05-22T13:46:08.748Z,35.16
2023-05-22T13:48:35.493Z,34.75
2023-05-22T13:51:03.128Z,33.89
2023-05-22T13:53:29.692Z,34.03
2023-05-22T13:55:56.332Z,34.01
2023-05-22T13:58:22.850Z,34.19
2023-05-22T14:00:49.453Z,34.49
2023-05-22T14:03:17.725Z,34.61
2023-05-22T14:05:45.088Z,34.55
2023-05-22T14:08:11.718Z,35.05
2023-05-22T14:10:38.646Z,35.09
2023-05-22T14:13:05.510Z,34.94
2023-05-22T14:15:32.158Z,34.27
2023-05-22T14:17:58.771Z,34.64
2023-05-22T14:20:25.591Z,35.01
2023-05-22T14:22:57.881Z,34.35
2023-05-22T14:25:25.898Z,34.02
2023-05-22T14:27:52.624Z,33.37
2023-05-22T14:30:19.347Z,33.31
2023-05-22T14:32:46.704Z,33.85
2023-05-22T14:35:13.464Z,34.25
2023-05-22T14:37:40.104Z,33.90
2023-05-22T14:40:07.579Z,34.32
2023-05-22T14:42:35.547Z,34.71
2023-05-22T14:45:03.817Z,34.82
2023-05-22T14:47:30.641Z,34.07
2023-05-22T14:50:06.224Z,32.95
2023-05-22T14:52:41.202Z,31.84
2023-05-22T14:55:08.298Z,30.26
2023-05-22T14:57:34.907Z,29.03
2023-05-22T15:00:01.649Z,27.81
2023-05-22T15:02:28.292Z,27.05
2023-05-22T15:04:54.965Z,26.50
2023-05-22T15:07:24.328Z,26.54
2023-05-22T15:09:53.355Z,26.54
2023-05-22T15:12:21.338Z,26.08
2023-05-22T15:14:49.135Z,25.46
2023-05-22T15:17:15.708Z,24.63
2023-05-22T15:19:43.848Z,24.43
2023-05-22T15:22:19.392Z,24.46
2023-05-22T15:25:03.970Z,24.24
2023-05-22T15:27:30.681Z,24.11
2023-05-22T15:29:57.742Z,24.25
2023-05-22T15:32:24.457Z,24.27
2023-05-22T15:34:51.644Z,24.45
2023-05-22T15:37:18.550Z,24.46
2023-05-22T15:39:45.164Z,24.28
2023-05-22T15:42:11.733Z,24.37
2023-05-22T15:44:38.306Z,24.41
2023-05-22T15:47:05.066Z,24.16
2023-05-22T15:49:31.711Z,23.95
2023-05-22T15:51:58.652Z,23.79
2023-05-22T15:54:25.296Z,24.49
2023-05-22T15:56:52.008Z,25.00
2023-05-22T15:59:18.561Z,25.49
2023-05-22T16:01:45.294Z,26.11
2023-05-22T16:04:12.078Z,27.19
2023-05-22T16:06:38.639Z,26.67
2023-05-22T16:09:06.046Z,26.14
2023-05-22T16:11:33.360Z,26.86
2023-05-22T16:13:59.927Z,28.50
2023-05-22T16:16:26.560Z,28.19
2023-05-22T16:18:53.159Z,27.82
2023-05-22T16:21:19.712Z,28.76
2023-05-22T16:23:46.366Z,30.04
2023-05-22T16:26:13.030Z,30.24
2023-05-22T16:28:39.646Z,29.85
2023-05-22T16:31:06.366Z,29.21
2023-05-22T16:33:34.407Z,28.56
2023-05-22T16:36:01.044Z,27.83
2023-05-22T16:38:27.968Z,27.81
2023-05-22T16:40:55.114Z,27.27
2023-05-22T16:43:21.685Z,26.97
2023-05-22T16:45:51.011Z,27.10
2023-05-22T16:48:18.170Z,27.07
2023-05-22T16:50:46.617Z,27.09
2023-05-22T16:53:13.957Z,27.50
2023-05-22T16:55:40.819Z,27.46
2023-05-22T16:58:09.102Z,26.90
2023-05-22T17:00:36.418Z,26.69
2023-05-22T17:03:03.358Z,26.84
2023-05-22T17:05:30.310Z,26.76
2023-05-22T17:07:56.874Z,26.07
2023-05-22T17:10:23.506Z,25.54
2023-05-22T17:12:50.262Z,25.12
2023-05-22T17:15:16.858Z,24.71
2023-05-22T17:17:43.473Z,24.90
2023-05-22T17:20:10.378Z,24.32
2023-05-22T17:22:38.492Z,24.37
2023-05-22T17:25:06.188Z,23.86
2023-05-22T17:27:36.231Z,23.95
2023-05-22T17:30:04.820Z,24.18
2023-05-22T17:32:31.573Z,24.51
2023-05-22T17:34:58.701Z,24.82
2023-05-22T17:37:25.339Z,24.49
2023-05-22T17:39:51.992Z,24.60
2023-05-22T17:42:18.616Z,24.87
2023-05-22T17:44:45.387Z,24.15
2023-05-22T17:47:13.366Z,23.77
2023-05-22T17:49:39.998Z,23.38
2023-05-22T17:52:08.461Z,23.24
2023-05-22T17:54:35.831Z,22.65
2023-05-22T17:57:05.859Z,22.95
2023-05-22T17:59:32.762Z,22.84
2023-05-22T18:01:59.469Z,22.89
2023-05-22T18:04:26.234Z,23.07
2023-05-22T18:06:52.823Z,22.88
2023-05-22T18:09:19.443Z,22.77
2023-05-22T18:11:46.067Z,22.66
2023-05-22T18:14:12.726Z,22.63
2023-05-22T18:16:39.409Z,22.80
2023-05-22T18:19:06.078Z,22.90
2023-05-22T18:21:32.741Z,22.92
2023-05-22T18:23:59.306Z,23.04
2023-05-22T18:26:26.809Z,22.72
2023-05-22T18:28:53.405Z,22.49
2023-05-22T18:31:20.363Z,22.71
2023-05-22T18:33:47.204Z,22.59
2023-05-22T18:36:13.943Z,22.53
2023-05-22T18:38:41.012Z,22.69
2023-05-22T18:41:07.800Z,21.95
2023-05-22T18:43:34.362Z,22.47
2023-05-22T18:46:01.180Z,22.50
2023-05-22T18:48:28.285Z,22.19
2023-05-22T18:50:57.380Z,21.92
2023-05-22T18:53:25.349Z,21.63
2023-05-22T18:55:53.574Z,21.47
2023-05-22T18:58:20.163Z,20.81
2023-05-22T19:00:46.835Z,20.91
2023-05-22T19:03:13.968Z,20.69
2023-05-22T19:05:41.383Z,20.49
2023-05-22T19:08:07.997Z,19.87
2023-05-22T19:10:34.596Z,20.21
2023-05-22T19:13:01.219Z,20.02
2023-05-22T19:15:27.843Z,19.79
2023-05-22T19:17:54.461Z,19.31
2023-05-22T19:20:23.628Z,19.46
2023-05-22T19:22:51.347Z,19.35
2023-05-22T19:25:18.318Z,19.01
2023-05-22T19:27:45.473Z,19.32
2023-05-22T19:30:15.034Z,19.08
2023-05-22T19:32:43.387Z,18.81
2023-05-22T19:35:11.011Z,18.99
2023-05-22T19:37:38.058Z,18.97
2023-05-22T19:40:05.898Z,18.81
2023-05-22T19:42:32.658Z,18.85
2023-05-22T19:44:59.436Z,18.78
2023-05-22T19:47:26.047Z,18.57
2023-05-22T19:49:52.784Z,18.43
2023-05-22T19:52:19.393Z,18.48
2023-05-22T19:54:46.229Z,17.49
2023-05-22T19:57:12.896Z,18.43
2023-05-22T19:59:39.527Z,18.37
2023-05-22T20:02:07.089Z,18.25
2023-05-22T20:04:34.298Z,18.09
2023-05-22T20:07:02.091Z,17.66
2023-05-22T20:09:28.758Z,18.06
2023-05-22T20:11:55.359Z,17.49
2023-05-22T20:14:21.948Z,17.65
2023-05-22T20:16:48.756Z,17.70
2023-05-22T20:19:15.422Z,17.22
2023-05-22T20:21:42.070Z,17.57
2023-05-22T20:24:20.696Z,17.51
2023-05-22T20:26:47.653Z,17.44
2023-05-22T20:29:14.435Z,17.38
2023-05-22T20:31:41.117Z,17.37
2023-05-22T20:34:09.553Z,17.31
2023-05-22T20:36:36.403Z,17.24
2023-05-22T20:39:03.584Z,17.13
2023-05-22T20:41:30.174Z,16.55
2023-05-22T20:43:58.487Z,17.01
2023-05-22T20:46:26.547Z,16.78
2023-05-22T20:48:53.819Z,16.88
2023-05-22T20:51:20.879Z,16.22
2023-05-22T20:53:52.427Z,16.68
2023-05-22T20:56:19.274Z,16.71
2023-05-22T20:58:46.068Z,16.23
2023-05-22T21:01:12.676Z,16.54
2023-05-22T21:03:39.252Z,16.59
2023-05-22T21:06:06.250Z,16.25
2023-05-22T21:08:32.879Z,16.47
2023-05-22T21:10:59.928Z,16.49
2023-05-22T21:13:26.489Z,16.54
2023-05-22T21:15:53.112Z,16.52
2023-05-22T21:18:19.938Z,16.40
2023-05-22T21:20:46.665Z,16.09
2023-05-22T21:23:13.492Z,16.46
2023-05-22T21:25:40.217Z,16.80
2023-05-22T21:28:07.823Z,16.87
2023-05-22T21:30:34.503Z,17.18
2023-05-22T21:33:01.263Z,16.75
2023-05-22T21:35:27.898Z,17.07
2023-05-22T21:37:54.453Z,17.14
2023-05-22T21:40:21.024Z,17.12
2023-05-22T21:42:47.679Z,17.15
2023-05-22T21:45:14.413Z,17.22
2023-05-22T21:47:41.153Z,17.37
2023-05-22T21:50:08.157Z,17.41
2023-05-22T21:52:34.762Z,17.60
2023-05-22T21:55:02.317Z,17.62
2023-05-22T21:57:28.906Z,17.48
2023-05-22T21:59:55.500Z,17.69
2023-05-22T22:02:22.150Z,17.78
2023-05-22T22:04:48.768Z,17.66
2023-05-22T22:07:15.481Z,17.74
2023-05-22T22:09:42.074Z,17.85
2023-05-22T22:12:08.844Z,17.69
2023-05-22T22:14:35.433Z,17.46
2023-05-22T22:17:02.063Z,17.33
2023-05-22T22:19:28.908Z,17.07
2023-05-22T22:21:55.595Z,16.86
2023-05-22T22:24:22.203Z,16.96
2023-05-22T22:26:49.299Z,16.73
2023-05-22T22:29:16.207Z,16.89
2023-05-22T22:31:42.865Z,16.97
2023-05-22T22:34:09.590Z,16.25
2023-05-22T22:36:36.173Z,16.73
2023-05-22T22:39:02.913Z,15.78
2023-05-22T22:41:30.420Z,16.68
2023-05-22T22:43:57.055Z,16.60
2023-05-22T22:46:23.762Z,16.49
2023-05-22T22:48:51.151Z,16.58
2023-05-22T22:51:18.540Z,16.54
2023-05-22T22:53:45.130Z,16.43
2023-05-22T22:56:11.769Z,16.32
2023-05-22T22:58:38.842Z,16.59
2023-05-22T23:01:05.548Z,16.65
2023-05-22T23:03:32.205Z,16.48
2023-05-22T23:05:58.748Z,16.11
2023-05-22T23:08:25.905Z,16.55
2023-05-22T23:10:52.491Z,16.45
2023-05-22T23:13:19.099Z,16.53
2023-05-22T23:15:45.768Z,16.07
2023-05-22T23:18:13.881Z,16.64
2023-05-22T23:20:40.599Z,16.18
2023-05-22T23:23:07.183Z,16.68
2023-05-22T23:25:33.822Z,16.62
2023-05-22T23:28:00.684Z,16.64
2023-05-22T23:30:27.497Z,16.58
2023-05-22T23:32:54.096Z,16.41
2023-05-22T23:35:20.810Z,16.44
2023-05-22T23:37:47.755Z,16.36
2023-05-22T23:40:14.387Z,16.42
2023-05-22T23:42:41.251Z,16.50
2023-05-22T23:45:08.142Z,16.42
2023-05-22T23:47:34.710Z,16.55
2023-05-22T23:50:01.280Z,16.55
2023-05-22T23:52:27.933Z,16.53
2023-05-22T23:54:54.472Z,16.53
2023-05-22T23:57:21.250Z,16.42
2023-05-22T23:59:47.872Z,16.52
